Weather reports worldwide

Advertisment
Gela, Italy (16453): temperature & dewpoint: 20.10.2020 23:00:00 - 26.10.2020 23:00:00 (CET)Gela, Italy (16453): wind speed: 20.10.2020 23:00:00 - 26.10.2020 23:00:00 (CET)Gela, Italy (16453): wind direction: 20.10.2020 23:00:00 - 26.10.2020 23:00:00 (CET)Gela, Italy (16453): visibility: 20.10.2020 23:00:00 - 26.10.2020 23:00:00 (CET)Gela, Italy (16453): sunshine duration: 20.10.2020 23:00:00 - 26.10.2020 23:00:00 (CET)
Date & Time tt [°C] td [°C] ff [km/h] ff [kn] dd vv [km] sd [min]
26.10.2020 23:00:00 - - - - - - -
26.10.2020 22:00:00 - - - - - - -
26.10.2020 21:00:00 - - - - - - -
26.10.2020 20:00:00 - - - - - - -
26.10.2020 19:00:00 20,0 18,5 4 2 E 20 0
26.10.2020 18:00:00 20,0 19,0 2 1 SSW 10 -
26.10.2020 17:00:00 20,0 18,0 4 2 - 10 -
26.10.2020 16:00:00 20,4 18,4 8 4 SW 20 60
26.10.2020 15:00:00 20,0 18,0 8 4 WSW 10 -
26.10.2020 14:00:00 20,0 17,0 13 7 WSW 10 -
26.10.2020 13:00:00 20,4 17,2 15 8 SW 15 60
26.10.2020 12:00:00 20,0 17,0 13 7 SSW 10 -
26.10.2020 11:00:00 20,0 16,0 9 5 SW 10 -
26.10.2020 10:00:00 20,0 15,2 4 2 N 18 60
26.10.2020 09:00:00 18,0 15,0 8 4 ENE 10 -
26.10.2020 08:00:00 17,0 15,0 8 4 ENE 10 -
26.10.2020 07:00:00 16,4 14,8 11 6 ENE 25 0
26.10.2020 06:00:00 - - - - - - -
26.10.2020 05:00:00 - - - - - - -
26.10.2020 04:00:00 - - - - - - -
26.10.2020 03:00:00 - - - - - - -
26.10.2020 02:00:00 - - - - - - -
26.10.2020 01:00:00 - - - - - - -
26.10.2020 00:00:00 - - - - - - -
25.10.2020 23:00:00 - - - - - - -
25.10.2020 22:00:00 - - - - - - -
25.10.2020 21:00:00 - - - - - - -
25.10.2020 20:00:00 - - - - - - -
25.10.2020 19:00:00 20,0 18,1 18 10 W 20 0
25.10.2020 18:00:00 20,0 18,0 21 11 W 10 -
25.10.2020 17:00:00 20,0 19,0 31 17 W 10 -
25.10.2020 16:00:00 21,0 18,8 29 16 W 20 60
25.10.2020 15:00:00 21,0 19,0 29 16 W 10 -
25.10.2020 14:00:00 21,0 18,0 31 17 W 10 -
25.10.2020 13:00:00 21,4 18,0 28 15 W 25 60
25.10.2020 12:00:00 22,0 19,0 24 13 W 10 -
25.10.2020 11:00:00 22,0 18,0 16 9 WSW 10 -
25.10.2020 10:00:00 21,4 14,8 8 4 WSW 25 60
25.10.2020 09:00:00 20,0 16,0 8 4 SSW 10 -
25.10.2020 08:00:00 19,0 15,0 5 3 - 10 -
25.10.2020 07:00:00 18,4 15,7 9 5 N 25 0
25.10.2020 06:00:00 - - - - - - -
25.10.2020 05:00:00 - - - - - - -
25.10.2020 04:00:00 - - - - - - -
25.10.2020 03:00:00 - - - - - - -
25.10.2020 02:00:00 - - - - - - -
25.10.2020 01:00:00 - - - - - - -
25.10.2020 00:00:00 - - - - - - -
24.10.2020 23:00:00 - - - - - - -
24.10.2020 22:00:00 - - - - - - -
24.10.2020 21:00:00 - - - - - - -
24.10.2020 20:00:00 - - - - - - -
24.10.2020 19:00:00 22,8 15,9 13 7 NNW 10 0
24.10.2020 18:00:00 23,0 16,0 11 6 N 10 -
24.10.2020 17:00:00 22,0 14,0 13 7 N 10 -
24.10.2020 16:00:00 22,0 18,8 16 9 W 12 60
24.10.2020 15:00:00 22,0 19,0 28 15 W 10 -
24.10.2020 14:00:00 22,0 20,0 18 10 W 10 -
24.10.2020 13:00:00 22,0 19,5 16 9 W 12 60
24.10.2020 12:00:00 22,0 20,0 18 10 WSW 10 -
24.10.2020 11:00:00 22,0 18,0 11 6 SW 10 -
24.10.2020 10:00:00 22,0 19,4 8 4 WSW 15 60
24.10.2020 09:00:00 20,0 18,0 5 3 - 10 -
24.10.2020 08:00:00 18,0 15,0 4 2 WNW 10 -
24.10.2020 07:00:00 18,8 17,1 4 2 ENE 12 0
24.10.2020 06:00:00 - - - - - - -
24.10.2020 05:00:00 - - - - - - -
24.10.2020 04:00:00 - - - - - - -
24.10.2020 03:00:00 - - - - - - -
24.10.2020 02:00:00 - - - - - - -
24.10.2020 01:00:00 - - - - - - -
24.10.2020 00:00:00 - - - - - - -
23.10.2020 23:00:00 - - - - - - -
23.10.2020 22:00:00 - - - - - - -
23.10.2020 21:00:00 - - - - - - -
23.10.2020 20:00:00 - - - - - - -
23.10.2020 19:00:00 20,4 18,4 4 2 N 18 0
23.10.2020 18:00:00 21,0 18,0 5 3 - 10 -
23.10.2020 17:00:00 21,0 18,0 8 4 WSW 10 -
23.10.2020 16:00:00 21,2 17,8 8 4 SW 18 60
23.10.2020 15:00:00 22,0 18,0 9 5 WSW 10 -
23.10.2020 14:00:00 21,0 17,0 9 5 - 10 -
23.10.2020 13:00:00 21,6 17,6 11 6 - 20 60
23.10.2020 12:00:00 22,0 17,0 11 6 SSW 10 -
23.10.2020 11:00:00 22,0 16,0 8 4 WSW 10 -
23.10.2020 10:00:00 21,8 16,3 4 2 N 20 60
23.10.2020 09:00:00 20,0 16,0 4 2 - 10 -
23.10.2020 08:00:00 18,0 16,0 5 3 - 10 -
23.10.2020 07:00:00 17,4 16,1 9 5 E 20 0
23.10.2020 06:00:00 - - - - - - -
23.10.2020 05:00:00 - - - - - - -
23.10.2020 04:00:00 - - - - - - -
23.10.2020 03:00:00 - - - - - - -
23.10.2020 02:00:00 - - - - - - -
23.10.2020 01:00:00 - - - - - - -
23.10.2020 00:00:00 - - - - - - -
22.10.2020 23:00:00 - - - - - - -
22.10.2020 22:00:00 - - - - - - -
22.10.2020 21:00:00 - - - - - - -
22.10.2020 20:00:00 - - - - - - -
22.10.2020 19:00:00 20,8 17,0 4 2 N 18 0
22.10.2020 18:00:00 21,0 17,0 5 3 - 10 -
22.10.2020 17:00:00 22,0 18,0 9 5 SW 10 -
22.10.2020 16:00:00 21,8 17,6 11 6 WSW 18 60
22.10.2020 15:00:00 22,0 17,0 13 7 SW 10 -
22.10.2020 14:00:00 22,0 16,0 16 9 SW 10 -
22.10.2020 13:00:00 22,0 16,3 13 7 SSW 18 60
22.10.2020 12:00:00 22,0 15,0 11 6 SW 10 -
22.10.2020 11:00:00 22,0 15,0 5 3 S 10 -
22.10.2020 10:00:00 20,8 15,8 8 4 E 18 36
22.10.2020 09:00:00 19,0 16,0 9 5 E 10 -
22.10.2020 08:00:00 19,0 16,0 9 5 ENE 10 -
22.10.2020 07:00:00 18,6 15,8 11 6 E 16 0
22.10.2020 06:00:00 - - - - - - -
22.10.2020 05:00:00 - - - - - - -
22.10.2020 04:00:00 - - - - - - -
22.10.2020 03:00:00 - - - - - - -
22.10.2020 02:00:00 - - - - - - -
22.10.2020 01:00:00 - - - - - - -
22.10.2020 00:00:00 - - - - - - -
21.10.2020 23:00:00 - - - - - - -
21.10.2020 22:00:00 - - - - - - -
21.10.2020 21:00:00 - - - - - - -
21.10.2020 20:00:00 - - - - - - -
21.10.2020 19:00:00 20,4 16,4 4 2 N 10 0
21.10.2020 18:00:00 21,0 17,0 9 5 SSW 10 -
21.10.2020 17:00:00 21,0 16,0 11 6 SW 10 -
21.10.2020 16:00:00 21,0 16,6 13 7 SW 20 60
21.10.2020 15:00:00 21,0 17,0 13 7 SSW 10 -
21.10.2020 14:00:00 21,0 15,0 11 6 S 10 -
21.10.2020 13:00:00 21,2 21,2 13 7 SSW 20 60
21.10.2020 12:00:00 21,0 14,0 11 6 SW 10 -
21.10.2020 11:00:00 21,0 14,0 9 5 SSW 10 -
21.10.2020 10:00:00 21,0 12,4 4 2 N 20 60
21.10.2020 09:00:00 20,0 13,0 9 5 ENE 10 -
21.10.2020 08:00:00 18,0 13,0 9 5 ENE 10 -
21.10.2020 07:00:00 17,0 17,0 13 7 ENE 15 0
21.10.2020 06:00:00 - - - - - - -
21.10.2020 05:00:00 - - - - - - -
21.10.2020 04:00:00 - - - - - - -
21.10.2020 03:00:00 - - - - - - -
21.10.2020 02:00:00 - - - - - - -
21.10.2020 01:00:00 - - - - - - -
21.10.2020 00:00:00 - - - - - - -
20.10.2020 23:00:00 - - - - - - -

tt = temperature
td = dewpoint
ff = wind speed
dd = wind direction
vv = visibility
sd = sunshine duration

Next stations